Time;durP1;ratioP1;P1;durP2;ratioP2;P2;SDS_P1;SDS_P2;PMS_P1;PMS_P2;Temp;Humidity;BMP_temperature;BMP_pressure;BME280_temperature;BME280_humidity;BME280_pressure;Samples;Min_cycle;Max_cycle;Signal;HPM_P1;HPM_P2
2021/08/13 00:00:04;;;;;;;;;14.33;14.33;;;;;19.34;77.90;100291.28;2388679;31;3523118;-53
2021/08/13 00:02:31;;;;;;;;;15.50;15.50;;;;;18.91;79.86;100292.34;2402639;31;2489778;-56
2021/08/13 00:04:59;;;;;;;;;17.00;16.00;;;;;18.83;80.42;100281.28;2390506;39;2481581;-56
2021/08/13 00:07:27;;;;;;;;;16.33;15.00;;;;;18.83;79.69;100284.00;2389628;31;3536607;-56
2021/08/13 00:09:56;;;;;;;;;16.33;14.00;;;;;18.48;81.43;100279.66;2388352;31;3533487;-56
2021/08/13 00:12:23;;;;;;;;;17.50;12.50;;;;;18.35;83.06;100284.41;2392275;31;2800171;-55
2021/08/13 00:14:51;;;;;;;;;14.00;14.00;;;;;18.54;81.92;100279.16;2392259;31;2806507;-55
2021/08/13 00:17:18;;;;;;;;;14.00;12.00;;;;;18.36;83.07;100276.16;2393100;31;2789806;-56
2021/08/13 00:19:47;;;;;;;;;14.67;14.67;;;;;18.24;83.64;100281.75;2389024;31;3518944;-53
2021/08/13 00:22:15;;;;;;;;;15.67;15.67;;;;;18.86;79.82;100284.56;2400095;31;3549111;-56
2021/08/13 00:24:43;;;;;;;;;15.50;14.50;;;;;18.53;82.09;100288.28;2390163;39;2496050;-55
2021/08/13 00:27:11;;;;;;;;;15.67;14.00;;;;;19.02;79.30;100286.81;2388178;39;3543947;-55
2021/08/13 00:29:40;;;;;;;;;15.00;15.00;;;;;18.81;79.88;100285.97;2389811;31;2685663;-56
2021/08/13 00:32:08;;;;;;;;;16.00;16.00;;;;;18.54;82.12;100287.31;2398563;31;2811676;-55
2021/08/13 00:34:38;;;;;;;;;14.00;14.00;;;;;18.86;79.70;100291.88;2388640;39;3531518;-56
2021/08/13 00:37:07;;;;;;;;;15.67;14.00;;;;;19.29;77.36;100285.38;2389373;31;3529318;-55
2021/08/13 00:39:35;;;;;;;;;18.67;16.00;;;;;19.21;77.91;100293.38;2387586;39;3563706;-56
2021/08/13 00:42:03;;;;;;;;;15.00;14.50;;;;;18.89;77.91;100288.03;2389566;39;2481520;-55
2021/08/13 00:44:32;;;;;;;;;14.00;14.00;;;;;18.90;78.39;100285.16;2388978;31;3530406;-56
2021/08/13 00:47:00;;;;;;;;;16.00;15.67;;;;;18.64;80.28;100284.66;2387418;31;3556497;-56
2021/08/13 00:49:29;;;;;;;;;15.67;15.67;;;;;18.51;81.53;100283.97;2388638;31;3555369;-55
2021/08/13 00:51:57;;;;;;;;;14.67;14.67;;;;;18.45;81.23;100281.78;2388454;31;3532493;-55
2021/08/13 00:54:25;;;;;;;;;16.00;15.00;;;;;18.42;81.17;100280.19;2392090;31;2810614;-55
2021/08/13 00:56:53;;;;;;;;;19.00;18.00;;;;;18.46;81.31;100280.78;2391560;31;2826263;-56
2021/08/13 00:59:21;;;;;;;;;15.50;15.50;;;;;18.10;82.97;100280.19;2392325;31;2491897;-55
2021/08/13 01:01:49;;;;;;;;;14.00;14.00;;;;;18.32;82.30;100279.25;2388510;31;3532473;-55
2021/08/13 01:04:17;;;;;;;;;15.50;15.50;;;;;18.19;82.07;100277.56;2401901;31;2814762;-56
2021/08/13 01:06:44;;;;;;;;;15.50;15.50;;;;;18.09;82.98;100282.06;2389805;39;2489779;-56
2021/08/13 01:09:13;;;;;;;;;14.00;14.00;;;;;17.88;84.14;100281.13;2388528;31;3524187;-56
2021/08/13 01:12:07;;;;;;;;;15.00;15.00;;;;;17.84;84.03;100276.91;2387430;31;2808548;-55
2021/08/13 01:14:51;;;;;;;;;19.00;17.00;;;;;18.20;81.75;100282.00;2388256;39;2489782;-55
2021/08/13 01:17:24;;;;;;;;;15.00;15.00;;;;;17.97;83.97;100281.22;2390105;31;2498136;-55
2021/08/13 01:20:17;;;;;;;;;16.50;15.50;;;;;17.92;84.20;100278.00;2390943;39;2823278;-55
2021/08/13 01:23:12;;;;;;;;;17.33;14.33;;;;;17.57;84.61;100277.31;2390068;31;3548092;-56
2021/08/13 01:25:46;;;;;;;;;16.00;15.50;;;;;17.68;85.35;100280.00;2388117;31;2808659;-55
2021/08/13 01:28:44;;;;;;;;;18.00;17.00;;;;;17.64;84.27;100273.97;2386575;46;2828354;-56
2021/08/13 01:31:25;;;;;;;;;17.00;15.67;;;;;17.51;85.12;100274.09;2388091;31;3553424;-54
2021/08/13 01:34:05;;;;;;;;;17.33;16.67;;;;;17.68;85.38;100275.44;2389226;31;3562672;-53
2021/08/13 01:36:35;;;;;;;;;21.00;17.00;;;;;17.50;85.67;100277.78;2388271;31;2829372;-56
2021/08/13 01:39:06;;;;;;;;;16.00;16.00;;;;;17.48;85.43;100273.47;2389018;31;2827324;-55
2021/08/13 01:41:36;;;;;;;;;16.00;16.00;;;;;17.46;86.41;100273.63;2388066;31;3556422;-56
2021/08/13 01:44:11;;;;;;;;;15.00;15.00;;;;;17.50;85.71;100271.50;2387722;39;3543906;-57
2021/08/13 01:46:39;;;;;;;;;15.00;15.00;;;;;17.25;86.70;100275.34;2390435;31;2797070;-56
2021/08/13 01:49:09;;;;;;;;;20.50;19.00;;;;;17.47;86.46;100277.19;2389208;31;2487703;-56
2021/08/13 01:51:37;;;;;;;;;16.50;16.50;;;;;17.42;86.61;100279.41;2389328;31;2489762;-56
2021/08/13 01:54:05;;;;;;;;;19.50;18.00;;;;;17.66;85.28;100271.13;2388568;31;2489779;-51
2021/08/13 01:56:34;;;;;;;;;20.00;17.50;;;;;17.58;85.10;100277.16;2389440;31;2481421;-55
2021/08/13 01:59:03;;;;;;;;;18.33;18.00;;;;;17.23;86.27;100278.16;2390732;31;3568958;-55
2021/08/13 02:01:32;;;;;;;;;18.00;17.00;;;;;17.08;86.49;100282.09;2387498;39;2829518;-55
2021/08/13 02:04:02;;;;;;;;;20.33;18.67;;;;;17.18;86.51;100288.53;2390191;31;2825218;-55
2021/08/13 02:06:32;;;;;;;;;19.00;17.00;;;;;17.03;86.78;100290.59;2399534;31;2827304;-55
2021/08/13 02:09:02;;;;;;;;;25.00;19.00;;;;;17.27;85.84;100286.91;2387723;39;2834599;-55
2021/08/13 02:11:32;;;;;;;;;21.00;20.50;;;;;17.29;85.73;100287.66;2387520;31;2836675;-55
2021/08/13 02:14:01;;;;;;;;;18.00;16.00;;;;;17.01;87.30;100280.84;2386447;39;2833558;-54
2021/08/13 02:16:32;;;;;;;;;20.50;20.50;;;;;16.83;87.40;100273.19;2388017;31;2838762;-55
2021/08/13 02:19:25;;;;;;;;;25.33;21.00;;;;;17.07;87.13;100275.81;2390040;31;3585619;-55
2021/08/13 02:21:53;;;;;;;;;17.00;16.00;;;;;17.39;85.67;100285.09;2386754;31;2825225;-54
2021/08/13 02:24:22;;;;;;;;;19.00;19.00;;;;;17.08;87.14;100287.53;2388414;39;2826350;-55
2021/08/13 02:26:50;;;;;;;;;21.50;17.00;;;;;16.78;87.48;100286.25;2388731;31;2833570;-55
2021/08/13 02:29:19;;;;;;;;;18.50;16.50;;;;;17.02;87.47;100288.00;2388131;31;2822103;-54
2021/08/13 02:31:48;;;;;;;;;18.50;17.00;;;;;17.17;86.37;100281.38;2388016;39;2835605;-53
2021/08/13 02:34:15;;;;;;;;;16.00;16.00;;;;;16.68;88.34;100279.78;2389243;39;2489828;-54
2021/08/13 02:36:51;;;;;;;;;23.50;18.50;;;;;16.79;88.33;100282.53;2390278;31;2823134;-55
2021/08/13 02:39:46;;;;;;;;;19.50;18.00;;;;;16.83;88.84;100284.03;2387079;46;2835610;-55
2021/08/13 02:42:21;;;;;;;;;19.00;17.00;;;;;16.86;89.15;100277.50;2388963;31;2481449;-55
2021/08/13 02:44:57;;;;;;;;;19.00;17.50;;;;;16.72;89.52;100277.66;2388540;31;2827280;-55
2021/08/13 02:47:29;;;;;;;;;15.00;15.00;;;;;16.91;87.81;100282.59;2387063;31;2799274;-54
2021/08/13 02:50:05;;;;;;;;;17.00;17.00;;;;;16.91;88.03;100282.59;2388170;31;2827348;-54
2021/08/13 02:52:58;;;;;;;;;20.00;17.00;;;;;16.72;89.06;100283.97;2388111;31;2817930;-55
2021/08/13 02:56:05;;;;;;;;;18.00;17.00;;;;;16.76;88.80;100280.03;2388171;31;2825241;-54
2021/08/13 02:58:50;;;;;;;;;23.50;22.00;;;;;16.93;88.54;100289.63;2388249;31;2491902;-54
2021/08/13 03:01:23;;;;;;;;;17.00;17.00;;;;;16.65;89.20;100289.00;2388253;31;2493949;-54
2021/08/13 03:03:55;;;;;;;;;17.50;17.50;;;;;16.39;90.87;100296.41;2387428;31;2827308;-54
2021/08/13 03:06:38;;;;;;;;;12.33;12.00;;;;;16.57;89.98;100293.28;2387060;31;3527260;-55
2021/08/13 03:09:08;;;;;;;;;19.50;18.00;;;;;16.75;88.92;100291.88;2399128;31;2822064;-56
2021/08/13 03:11:40;;;;;;;;;17.00;15.00;;;;;16.87;88.11;100293.66;2387458;31;2815930;-54
2021/08/13 03:14:10;;;;;;;;;19.00;17.00;;;;;16.75;89.55;100296.44;2387955;31;2830394;-53
2021/08/13 03:16:41;;;;;;;;;19.50;17.50;;;;;16.60;90.27;100290.34;2388151;31;2831443;-54
2021/08/13 03:19:10;;;;;;;;;16.50;16.50;;;;;16.83;89.17;100288.59;2390119;31;2489774;-54
2021/08/13 03:21:39;;;;;;;;;21.50;18.50;;;;;16.49;90.65;100284.91;2388943;31;2498107;-54
2021/08/13 03:24:08;;;;;;;;;20.50;18.50;;;;;16.33;90.72;100288.78;2388650;31;2830398;-55
2021/08/13 03:26:37;;;;;;;;;22.00;17.00;;;;;16.33;91.06;100286.06;2387882;31;2827321;-55
2021/08/13 03:29:06;;;;;;;;;21.00;17.50;;;;;16.28;91.47;100288.25;2387891;39;2824148;-54
2021/08/13 03:31:39;;;;;;;;;18.00;18.00;;;;;16.19;91.49;100288.94;2387839;31;2824152;-54
2021/08/13 03:34:10;;;;;;;;;22.50;20.00;;;;;16.20;91.55;100285.25;2387932;39;2833511;-52
2021/08/13 03:36:39;;;;;;;;;19.00;19.00;;;;;16.15;91.33;100282.03;2389150;31;2837752;-54
2021/08/13 03:39:11;;;;;;;;;20.00;19.50;;;;;15.95;92.29;100289.78;2389407;31;2843927;-54
2021/08/13 03:41:39;;;;;;;;;22.00;18.00;;;;;16.00;91.48;100274.06;2388706;31;2489778;-54
2021/08/13 03:44:08;;;;;;;;;20.50;17.50;;;;;15.82;92.87;100283.56;2388266;39;2832508;-55
2021/08/13 03:46:36;;;;;;;;;21.50;19.00;;;;;15.80;92.91;100283.69;2388061;39;2834572;-54
2021/08/13 03:49:04;;;;;;;;;19.00;17.00;;;;;16.17;91.64;100290.91;2391799;31;2487722;-54
2021/08/13 03:51:32;;;;;;;;;25.33;23.00;;;;;16.08;91.94;100281.59;2391757;31;3567904;-54
2021/08/13 03:54:01;;;;;;;;;18.50;16.50;;;;;16.17;91.05;100288.22;2387690;39;2829383;-53
2021/08/13 03:56:30;;;;;;;;;23.00;21.00;;;;;16.14;91.04;100280.28;2388679;31;2839777;-56
2021/08/13 03:58:59;;;;;;;;;18.00;18.00;;;;;16.34;90.21;100286.91;2389047;31;2829719;-55
2021/08/13 04:01:27;;;;;;;;;18.00;18.00;;;;;16.41;89.24;100288.19;2388284;31;2827277;-55
2021/08/13 04:03:59;;;;;;;;;21.00;21.00;;;;;16.29;89.78;100292.69;2388610;31;2818932;-55
2021/08/13 04:06:28;;;;;;;;;23.00;21.50;;;;;16.40;88.74;100298.16;2387566;39;2837737;-55
2021/08/13 04:08:55;;;;;;;;;24.00;20.50;;;;;16.60;88.14;100295.78;2390043;31;2498091;-55
2021/08/13 04:11:24;;;;;;;;;18.00;18.00;;;;;17.07;84.03;100302.09;2388329;39;2818987;-52
2021/08/13 04:13:52;;;;;;;;;16.50;15.00;;;;;17.11;84.09;100311.69;2389549;31;2817954;-55
2021/08/13 04:16:20;;;;;;;;;19.50;17.00;;;;;17.07;85.73;100308.38;2389477;31;2496040;-55
2021/08/13 04:18:48;;;;;;;;;17.00;16.00;;;;;17.14;85.04;100306.06;2389374;31;2489787;-54
2021/08/13 04:21:16;;;;;;;;;19.00;17.00;;;;;17.69;81.06;100317.03;2389024;31;2831432;-54
2021/08/13 04:23:45;;;;;;;;;19.00;18.00;;;;;17.59;81.76;100327.78;2388181;39;2831471;-55
2021/08/13 04:26:12;;;;;;;;;18.50;14.50;;;;;17.52;81.50;100318.41;2390802;31;2498174;-55
2021/08/13 04:28:41;;;;;;;;;19.00;17.00;;;;;17.46;83.35;100324.34;2388686;31;2828390;-55
2021/08/13 04:31:08;;;;;;;;;15.00;13.00;;;;;17.62;82.79;100332.97;2392493;31;2788725;-55
2021/08/13 04:33:37;;;;;;;;;20.00;20.00;;;;;17.63;82.64;100326.53;2388136;31;2837681;-55
2021/08/13 04:36:06;;;;;;;;;23.67;22.67;;;;;17.65;81.68;100327.28;2387974;31;2843982;-54
2021/08/13 04:38:34;;;;;;;;;25.67;24.67;;;;;18.09;79.05;100328.25;2402745;31;3588787;-55
2021/08/13 04:41:03;;;;;;;;;27.33;27.33;;;;;18.24;77.99;100334.25;2390320;31;3589755;-54
2021/08/13 04:43:31;;;;;;;;;23.33;22.00;;;;;18.21;77.86;100339.94;2391121;31;3584617;-54
2021/08/13 04:46:00;;;;;;;;;20.00;19.00;;;;;18.26;78.34;100339.56;2390335;31;3571088;-54
2021/08/13 04:48:27;;;;;;;;;79.00;64.00;;;;;18.09;80.03;100341.84;2389508;31;1939897;-55
2021/08/13 04:50:57;;;;;;;;;93.25;82.00;;;;;17.96;78.81;100346.56;2391253;31;4443977;-55
2021/08/13 04:53:26;;;;;;;;;131.67;100.67;;;;;18.10;78.89;100337.25;2389260;39;3715831;-55
2021/08/13 04:55:55;;;;;;;;;60.00;46.00;;;;;18.19;78.96;100333.78;2388588;31;3627327;-55
2021/08/13 04:58:24;;;;;;;;;14.67;11.33;;;;;18.25;77.94;100343.28;2400454;31;3507486;-55
2021/08/13 05:00:52;;;;;;;;;22.67;18.00;;;;;17.97;80.03;100345.56;2402355;31;3574118;-55
2021/08/13 05:03:20;;;;;;;;;17.00;17.00;;;;;17.99;79.27;100338.16;2388279;31;2487695;-54
2021/08/13 05:05:49;;;;;;;;;17.33;17.33;;;;;18.62;76.28;100343.78;2390117;31;2823178;-55
2021/08/13 05:08:16;;;;;;;;;14.50;14.50;;;;;18.74;75.33;100356.31;2403810;31;2812706;-55
2021/08/13 05:10:44;;;;;;;;;14.00;14.00;;;;;19.07;74.28;100355.34;2392145;31;2489814;-56
2021/08/13 05:13:12;;;;;;;;;16.00;13.33;;;;;19.33;72.80;100352.22;2389361;31;3538750;-56
2021/08/13 05:15:40;;;;;;;;;15.00;15.00;;;;;19.54;71.85;100371.25;2387111;39;3529332;-56
2021/08/13 05:18:09;;;;;;;;;14.67;13.00;;;;;19.16;72.50;100370.00;2399760;31;3533669;-56
2021/08/13 05:20:37;;;;;;;;;15.00;15.00;;;;;19.79;71.73;100364.50;2392251;31;2806484;-56
2021/08/13 05:23:06;;;;;;;;;12.67;12.00;;;;;20.85;65.80;100368.47;2400424;31;3510690;-56
2021/08/13 05:25:34;;;;;;;;;12.33;12.00;;;;;20.60;67.20;100378.09;2399791;31;3525308;-56
2021/08/13 05:28:03;;;;;;;;;12.33;12.33;;;;;19.07;72.98;100368.09;2392649;31;2801216;-55
2021/08/13 05:30:31;;;;;;;;;11.00;11.00;;;;;18.94;74.06;100362.84;2399966;39;2787818;-56
2021/08/13 05:33:00;;;;;;;;;13.00;13.00;;;;;19.23;73.60;100363.03;2399931;31;3521133;-55
2021/08/13 05:35:28;;;;;;;;;14.00;14.00;;;;;19.08;74.10;100359.75;2399709;31;3533498;-56
2021/08/13 05:37:58;;;;;;;;;15.00;14.00;;;;;19.45;72.52;100364.72;2391073;39;2805414;-56
2021/08/13 05:40:28;;;;;;;;;16.67;16.00;;;;;19.42;72.19;100361.41;2389213;31;3560616;-54
2021/08/13 05:42:56;;;;;;;;;13.67;13.67;;;;;19.74;72.13;100364.03;2388201;31;3525321;-55
2021/08/13 05:45:25;;;;;;;;;17.00;17.00;;;;;19.97;71.15;100367.44;2385817;39;2831503;-56
2021/08/13 05:47:53;;;;;;;;;16.00;14.00;;;;;19.69;71.71;100352.69;2391704;31;2802274;-56
2021/08/13 05:50:22;;;;;;;;;15.00;12.33;;;;;19.78;70.37;100351.88;2403219;31;2804333;-55
2021/08/13 05:52:50;;;;;;;;;13.33;13.00;;;;;20.25;69.29;100357.63;2402900;31;2803319;-56
2021/08/13 05:55:19;;;;;;;;;17.33;15.33;;;;;20.35;69.24;100350.31;2402586;31;2481477;-55
2021/08/13 05:57:47;;;;;;;;;12.33;12.33;;;;;20.12;68.60;100344.25;2404565;31;2801244;-57
2021/08/13 06:00:16;;;;;;;;;15.33;15.33;;;;;20.23;68.00;100346.00;2400816;31;3550180;-55
2021/08/13 06:02:52;;;;;;;;;15.00;15.00;;;;;20.39;67.80;100335.38;2387426;31;3542929;-55
2021/08/13 06:05:21;;;;;;;;;16.00;14.00;;;;;20.46;67.09;100338.41;2401810;31;2489790;-56
2021/08/13 06:07:50;;;;;;;;;15.00;15.00;;;;;20.37;67.73;100331.06;2399784;31;3533546;-53
2021/08/13 06:10:21;;;;;;;;;13.00;13.00;;;;;20.24;68.91;100331.34;2391349;31;2804330;-56
2021/08/13 06:12:50;;;;;;;;;16.00;14.00;;;;;20.25;67.41;100333.09;2402520;31;2489809;-56
2021/08/13 06:15:19;;;;;;;;;15.00;14.00;;;;;21.05;66.84;100337.41;2400794;31;2483537;-56
2021/08/13 06:17:48;;;;;;;;;13.67;13.67;;;;;20.79;66.33;100345.34;2402639;31;2489794;-55
2021/08/13 06:20:21;;;;;;;;;14.00;13.67;;;;;21.09;66.22;100348.03;2401395;31;2485628;-56
2021/08/13 06:22:49;;;;;;;;;15.00;13.67;;;;;20.93;65.57;100354.97;2400998;31;3524143;-56
2021/08/13 06:25:18;;;;;;;;;14.33;14.33;;;;;21.13;65.75;100360.41;2387870;31;3533530;-56
2021/08/13 06:27:47;;;;;;;;;15.00;15.00;;;;;21.15;65.78;100362.00;2389957;39;2489846;-55
2021/08/13 06:30:20;;;;;;;;;16.33;15.00;;;;;21.43;65.53;100367.56;2400245;31;3546042;-55
2021/08/13 06:32:51;;;;;;;;;13.00;13.00;;;;;21.32;64.03;100367.69;2388456;31;3533499;-55
2021/08/13 06:35:20;;;;;;;;;12.33;11.33;;;;;21.73;63.43;100365.63;2388005;31;2786658;-56
2021/08/13 06:37:54;;;;;;;;;14.00;14.00;;;;;22.02;62.82;100373.69;2399633;31;3531522;-57
2021/08/13 06:40:23;;;;;;;;;15.00;14.00;;;;;21.70;63.59;100380.44;2392219;31;2803695;-54
2021/08/13 06:42:53;;;;;;;;;14.33;14.33;;;;;22.09;63.25;100383.88;2400817;31;3537649;-56
2021/08/13 06:45:23;;;;;;;;;15.00;12.67;;;;;23.64;57.98;100386.38;2391336;31;2795002;-54
2021/08/13 06:47:52;;;;;;;;;15.00;12.33;;;;;28.28;44.86;100396.41;2399492;31;3530373;-57
2021/08/13 06:50:21;;;;;;;;;14.00;14.00;;;;;27.40;45.89;100393.38;2389160;39;2481493;-56
2021/08/13 06:52:50;;;;;;;;;13.00;10.67;;;;;27.77;45.25;100395.25;2402542;31;2481457;-57
2021/08/13 06:55:19;;;;;;;;;10.67;10.67;;;;;29.25;41.99;100398.81;2399404;39;3518975;-56
2021/08/13 06:57:50;;;;;;;;;11.33;11.33;;;;;27.10;47.68;100392.41;2388275;31;3522118;-56
2021/08/13 07:00:19;;;;;;;;;15.00;12.00;;;;;25.99;48.56;100388.91;2387407;39;3523158;-57
2021/08/13 07:02:49;;;;;;;;;12.33;11.33;;;;;25.49;52.03;100384.53;2389351;31;3512646;-56
2021/08/13 07:05:19;;;;;;;;;10.67;10.67;;;;;26.01;50.42;100389.59;2403452;31;3511668;-56
2021/08/13 07:07:47;;;;;;;;;14.67;12.67;;;;;25.42;52.41;100390.91;2402849;31;2800258;-57
2021/08/13 07:10:16;;;;;;;;;13.67;12.33;;;;;25.15;52.37;100382.84;2401087;31;3525292;-55
2021/08/13 07:12:45;;;;;;;;;12.33;12.33;;;;;25.59;50.98;100387.06;2388878;31;3510595;-58
2021/08/13 07:15:14;;;;;;;;;14.00;11.33;;;;;25.70;50.85;100385.84;2392455;31;2803292;-57
2021/08/13 07:17:42;;;;;;;;;12.00;12.00;;;;;25.09;52.53;100380.75;2405576;31;2796028;-58
2021/08/13 07:20:11;;;;;;;;;11.67;10.67;;;;;25.45;51.79;100374.91;2406482;31;2809538;-56
2021/08/13 07:22:39;;;;;;;;;10.33;10.33;;;;;25.06;53.27;100380.22;2401051;31;3500151;-58
2021/08/13 07:25:09;;;;;;;;;12.33;12.33;;;;;25.35;52.53;100380.56;2401129;31;3533613;-57
2021/08/13 07:27:37;;;;;;;;;12.67;12.67;;;;;25.76;50.95;100393.41;2392183;31;2481454;-57
2021/08/13 07:30:06;;;;;;;;;12.00;12.00;;;;;25.46;51.63;100398.63;2403706;31;2481458;-58
2021/08/13 07:32:35;;;;;;;;;16.00;13.00;;;;;25.57;51.21;100408.41;2400479;31;2808717;-58
2021/08/13 07:35:04;;;;;;;;;13.33;13.33;;;;;24.89;52.68;100409.59;2391682;31;2481497;-56
2021/08/13 07:37:32;;;;;;;;;13.33;12.00;;;;;25.41;51.47;100406.53;2403194;31;2481445;-56
2021/08/13 07:40:01;;;;;;;;;12.00;12.00;;;;;25.82;51.02;100410.06;2401277;31;3516920;-58
2021/08/13 07:42:29;;;;;;;;;15.00;13.00;;;;;26.16;50.36;100400.69;2392245;31;2481464;-56
2021/08/13 07:44:57;;;;;;;;;14.00;12.67;;;;;25.68;49.93;100398.94;2399913;31;3523158;-56
2021/08/13 07:47:26;;;;;;;;;10.67;10.67;;;;;26.44;48.27;100397.47;2392490;31;2784598;-53
2021/08/13 07:49:54;;;;;;;;;13.33;10.67;;;;;26.74;48.02;100397.69;2404640;31;2804464;-57
2021/08/13 07:52:23;;;;;;;;;14.33;13.33;;;;;25.90;50.62;100398.19;2402061;31;3526298;-57
2021/08/13 07:54:52;;;;;;;;;12.00;12.00;;;;;25.97;50.23;100390.13;2388773;31;3520018;-56
2021/08/13 07:57:21;;;;;;;;;15.33;11.00;;;;;26.31;49.10;100403.56;2391149;31;2481430;-55
2021/08/13 07:59:49;;;;;;;;;12.00;12.00;;;;;26.25;49.20;100407.00;2402718;31;2489755;-57
2021/08/13 08:02:18;;;;;;;;;11.33;11.33;;;;;25.86;49.93;100405.13;2401257;31;3512684;-58
2021/08/13 08:04:47;;;;;;;;;12.00;12.00;;;;;25.98;49.27;100413.84;2390141;31;3529432;-57
2021/08/13 08:07:15;;;;;;;;;12.67;12.67;;;;;26.23;47.45;100407.22;2389227;31;3521019;-58
2021/08/13 08:09:44;;;;;;;;;12.00;10.67;;;;;26.53;47.99;100410.19;2394196;31;2788709;-57
2021/08/13 08:12:12;;;;;;;;;14.00;13.00;;;;;26.50;48.07;100413.28;2402040;31;3520972;-58
2021/08/13 08:14:40;;;;;;;;;11.00;11.00;;;;;26.67;47.15;100414.06;2402771;31;3540762;-58
2021/08/13 08:17:09;;;;;;;;;11.00;10.00;;;;;26.18;47.25;100408.78;2389217;31;2781487;-58
2021/08/13 08:19:37;;;;;;;;;8.67;8.67;;;;;27.23;46.59;100413.91;2401493;31;3464763;-58
2021/08/13 08:22:06;;;;;;;;;12.00;12.00;;;;;26.74;47.72;100409.56;2402624;31;3527253;-58
2021/08/13 08:24:35;;;;;;;;;10.20;10.20;;;;;26.92;46.78;100406.50;2402529;31;2800202;-58
2021/08/13 08:27:04;;;;;;;;;11.00;10.33;;;;;27.21;46.44;100405.78;2390385;31;3498709;-57
2021/08/13 08:29:33;;;;;;;;;10.67;9.00;;;;;27.35;45.61;100406.88;2401495;31;3487631;-58
2021/08/13 08:32:01;;;;;;;;;11.00;10.00;;;;;27.41;45.00;100411.66;2402188;31;3512637;-58
2021/08/13 08:34:29;;;;;;;;;13.33;12.00;;;;;26.98;46.16;100407.66;2404384;31;2481433;-58
2021/08/13 08:36:57;;;;;;;;;11.33;10.67;;;;;27.39;44.57;100413.75;2401250;31;3522100;-59
2021/08/13 08:39:26;;;;;;;;;12.00;10.00;;;;;27.54;43.89;100411.00;2400858;31;3515810;-59
2021/08/13 08:41:55;;;;;;;;;14.33;13.33;;;;;28.10;44.55;100422.53;2401726;31;3518965;-58
2021/08/13 08:44:23;;;;;;;;;11.00;11.00;;;;;27.98;43.87;100415.75;2393928;31;2804329;-58
2021/08/13 08:46:52;;;;;;;;;11.00;11.00;;;;;27.61;45.17;100411.97;2401678;31;3521031;-58
2021/08/13 08:49:21;;;;;;;;;12.33;11.33;;;;;27.95;44.01;100414.22;2405642;31;2797041;-57
2021/08/13 08:51:54;;;;;;;;;10.33;10.33;;;;;27.93;43.45;100409.94;2405536;31;2787686;-59
2021/08/13 08:54:26;;;;;;;;;11.33;10.33;;;;;28.29;44.31;100415.56;2406555;31;2779458;-58
2021/08/13 08:56:56;;;;;;;;;11.33;11.33;;;;;28.24;45.02;100413.38;2400828;31;3513668;-56
2021/08/13 08:59:42;;;;;;;;;12.33;12.33;;;;;28.63;44.16;100417.72;2401874;31;2782895;-57
2021/08/13 09:02:12;;;;;;;;;11.33;9.33;;;;;29.26;40.99;100417.13;2407127;31;2783557;-57
2021/08/13 09:04:41;;;;;;;;;10.67;10.67;;;;;28.99;41.79;100419.63;2406399;31;2804363;-57
2021/08/13 09:07:13;;;;;;;;;11.33;10.00;;;;;28.79;41.89;100415.78;2399815;39;3500155;-58
2021/08/13 09:09:41;;;;;;;;;13.00;9.33;;;;;28.65;42.45;100410.09;2400950;31;3499129;-58
2021/08/13 09:12:10;;;;;;;;;10.00;10.00;;;;;28.62;42.80;100412.38;2405867;31;2778324;-57
2021/08/13 09:14:41;;;;;;;;;12.00;12.00;;;;;29.02;42.53;100412.84;2401699;31;3532485;-59
2021/08/13 09:17:10;;;;;;;;;12.67;11.67;;;;;28.43;41.27;100417.47;2401166;31;3511688;-58
2021/08/13 09:19:42;;;;;;;;;12.67;10.00;;;;;29.12;41.08;100415.28;2393728;31;2786657;-58
2021/08/13 09:22:20;;;;;;;;;10.67;10.67;;;;;28.57;42.59;100407.44;2405738;39;2786705;-57
2021/08/13 09:24:51;;;;;;;;;9.67;9.67;;;;;28.06;42.18;100412.91;2405693;31;2481434;-58
2021/08/13 09:27:30;;;;;;;;;17.33;11.00;;;;;29.38;41.46;100407.22;2406326;31;2793929;-57
2021/08/13 09:30:15;;;;;;;;;10.67;10.67;;;;;28.29;40.01;100403.66;2402163;31;3515791;-58
2021/08/13 09:33:03;;;;;;;;;8.67;8.67;;;;;28.93;42.37;100402.94;2406747;31;2758526;-58
2021/08/13 09:36:00;;;;;;;;;10.00;10.00;;;;;28.92;40.71;100404.84;2399924;31;3508574;-59
2021/08/13 09:38:30;;;;;;;;;12.67;11.33;;;;;28.98;39.97;100409.59;2404015;31;2481453;-58
2021/08/13 09:41:14;;;;;;;;;10.00;8.67;;;;;28.41;40.53;100404.84;2400873;31;3486637;-58
2021/08/13 09:44:00;;;;;;;;;10.67;10.67;;;;;29.00;40.96;100407.50;2400989;39;3511585;-59
2021/08/13 09:46:30;;;;;;;;;11.67;11.67;;;;;28.95;39.70;100387.88;2404079;31;2481523;-59
2021/08/13 09:49:17;;;;;;;;;12.67;11.00;;;;;29.03;41.16;100397.94;2404097;31;2802270;-59
2021/08/13 09:51:45;;;;;;;;;11.00;11.00;;;;;29.19;40.18;100396.84;2401765;31;3510767;-59
2021/08/13 09:54:14;;;;;;;;;10.33;10.00;;;;;29.48;39.56;100398.59;2394981;31;2781497;-58
2021/08/13 09:56:42;;;;;;;;;11.67;9.67;;;;;29.77;38.61;100405.88;2400980;31;3497022;-58
2021/08/13 09:59:17;;;;;;;;;11.00;11.00;;;;;29.33;40.52;100390.38;2404740;31;2801264;-54
2021/08/13 10:01:51;;;;;;;;;11.67;11.67;;;;;28.84;39.17;100392.00;2401147;31;3500555;-58
2021/08/13 10:04:33;;;;;;;;;13.67;11.67;;;;;29.94;39.24;100396.19;2401163;31;3517028;-59
2021/08/13 10:07:01;;;;;;;;;10.00;10.00;;;;;29.98;38.73;100391.94;2389128;31;3378280;-59
2021/08/13 10:09:30;;;;;;;;;13.33;9.67;;;;;30.54;37.86;100392.88;2400439;31;3497030;-59
2021/08/13 10:12:04;;;;;;;;;8.00;8.00;;;;;30.03;37.98;100401.56;2402866;31;2750209;-59
2021/08/13 10:14:35;;;;;;;;;12.33;12.33;;;;;30.08;38.38;100397.13;2404490;31;2489857;-59
2021/08/13 10:17:12;;;;;;;;;11.33;10.00;;;;;30.11;39.37;100395.84;2405796;31;2791946;-59
2021/08/13 10:19:52;;;;;;;;;10.00;10.00;;;;;29.18;39.93;100389.63;2412661;31;2779330;-59
2021/08/13 10:22:21;;;;;;;;;13.00;12.00;;;;;30.27;38.44;100391.91;2390035;31;3509505;-59
2021/08/13 10:24:50;;;;;;;;;12.00;10.33;;;;;30.18;38.40;100389.28;2401423;31;3497010;-60
2021/08/13 10:27:20;;;;;;;;;9.67;9.67;;;;;30.64;37.64;100387.78;2400932;31;3489743;-59
2021/08/13 10:29:48;;;;;;;;;11.33;8.67;;;;;30.18;37.81;100383.75;2405955;31;2762724;-59
2021/08/13 10:32:20;;;;;;;;;11.33;9.33;;;;;29.95;38.69;100389.56;2400150;31;2770073;-59
2021/08/13 10:34:48;;;;;;;;;10.33;10.33;;;;;30.56;37.68;100388.81;2399197;31;3500210;-59
2021/08/13 10:37:18;;;;;;;;;8.67;8.67;;;;;30.93;36.50;100382.97;2402152;31;2754391;-60
2021/08/13 10:39:47;;;;;;;;;12.00;11.00;;;;;31.91;35.80;100383.19;2400357;31;3502285;-60
2021/08/13 10:42:21;;;;;;;;;12.67;9.67;;;;;30.93;36.89;100383.84;2399762;31;3502282;-59
2021/08/13 10:44:57;;;;;;;;;11.00;8.33;;;;;31.49;35.92;100391.81;2400150;31;3496020;-60
2021/08/13 10:47:45;;;;;;;;;11.33;10.33;;;;;30.13;37.40;100379.88;2405310;31;2782483;-59
2021/08/13 10:50:18;;;;;;;;;9.67;7.67;;;;;31.09;36.03;100381.72;2405451;31;2753290;-58
2021/08/13 10:52:47;;;;;;;;;9.40;9.40;;;;;30.87;37.06;100376.38;2412923;31;2758554;-58
2021/08/13 10:55:56;;;;;;;;;9.33;9.33;;;;;29.84;37.67;100369.94;2392049;31;2766834;-59
2021/08/13 10:58:36;;;;;;;;;10.00;8.67;;;;;29.97;37.33;100370.84;2406726;31;2765789;-57
2021/08/13 11:01:08;;;;;;;;;11.33;9.00;;;;;31.02;36.74;100376.19;2401796;31;2767924;-59
2021/08/13 11:03:42;;;;;;;;;9.33;9.33;;;;;31.16;37.33;100369.56;2406089;31;2766978;-60
2021/08/13 11:06:11;;;;;;;;;10.33;9.67;;;;;32.00;36.38;100369.97;2407266;31;2783493;-61
2021/08/13 11:08:42;;;;;;;;;9.00;9.00;;;;;31.25;35.84;100361.88;2399626;39;2762820;-60
2021/08/13 11:11:13;;;;;;;;;9.33;9.00;;;;;32.06;36.38;100357.97;2407440;31;2764787;-60